sensor_id;sensor_type;location;lat;lon;timestamp;P1;durP1;ratioP1;P2;durP2;ratioP2
26718;SDS011;14326;50.794;6.060;2023-07-31T00:02:04;14.32;;;4.40;;
26718;SDS011;14326;50.794;6.060;2023-07-31T00:04:31;16.23;;;4.22;;
26718;SDS011;14326;50.794;6.060;2023-07-31T00:06:58;19.33;;;4.43;;
26718;SDS011;14326;50.794;6.060;2023-07-31T00:09:25;18.15;;;4.18;;
26718;SDS011;14326;50.794;6.060;2023-07-31T00:11:51;13.95;;;3.38;;
26718;SDS011;14326;50.794;6.060;2023-07-31T00:14:18;20.15;;;4.65;;
26718;SDS011;14326;50.794;6.060;2023-07-31T00:16:44;17.90;;;4.35;;
26718;SDS011;14326;50.794;6.060;2023-07-31T00:19:11;16.95;;;3.78;;
26718;SDS011;14326;50.794;6.060;2023-07-31T00:21:37;17.83;;;4.13;;
26718;SDS011;14326;50.794;6.060;2023-07-31T00:24:05;17.98;;;4.28;;
26718;SDS011;14326;50.794;6.060;2023-07-31T00:26:31;17.10;;;4.68;;
26718;SDS011;14326;50.794;6.060;2023-07-31T00:28:58;18.30;;;4.15;;
26718;SDS011;14326;50.794;6.060;2023-07-31T00:31:24;15.88;;;4.18;;
26718;SDS011;14326;50.794;6.060;2023-07-31T00:33:51;12.20;;;3.33;;
26718;SDS011;14326;50.794;6.060;2023-07-31T00:36:17;14.75;;;3.70;;
26718;SDS011;14326;50.794;6.060;2023-07-31T00:38:44;20.52;;;4.13;;
26718;SDS011;14326;50.794;6.060;2023-07-31T00:41:11;18.02;;;4.15;;
26718;SDS011;14326;50.794;6.060;2023-07-31T00:43:38;12.98;;;3.90;;
26718;SDS011;14326;50.794;6.060;2023-07-31T00:46:04;13.73;;;3.78;;
26718;SDS011;14326;50.794;6.060;2023-07-31T00:48:31;21.67;;;4.25;;
26718;SDS011;14326;50.794;6.060;2023-07-31T00:50:58;15.40;;;3.72;;
26718;SDS011;14326;50.794;6.060;2023-07-31T00:53:26;13.40;;;3.85;;
26718;SDS011;14326;50.794;6.060;2023-07-31T00:55:53;15.40;;;4.63;;
26718;SDS011;14326;50.794;6.060;2023-07-31T00:58:21;15.98;;;3.97;;
26718;SDS011;14326;50.794;6.060;2023-07-31T01:00:47;16.85;;;3.90;;
26718;SDS011;14326;50.794;6.060;2023-07-31T01:03:15;14.40;;;4.00;;
26718;SDS011;14326;50.794;6.060;2023-07-31T01:05:43;13.50;;;3.92;;
26718;SDS011;14326;50.794;6.060;2023-07-31T01:08:15;15.15;;;4.10;;
26718;SDS011;14326;50.794;6.060;2023-07-31T01:13:10;14.90;;;3.78;;
26718;SDS011;14326;50.794;6.060;2023-07-31T01:15:38;17.30;;;4.15;;
26718;SDS011;14326;50.794;6.060;2023-07-31T01:18:04;16.55;;;4.32;;
26718;SDS011;14326;50.794;6.060;2023-07-31T01:20:31;16.85;;;4.72;;
26718;SDS011;14326;50.794;6.060;2023-07-31T01:25:53;17.40;;;4.10;;
26718;SDS011;14326;50.794;6.060;2023-07-31T01:28:20;15.80;;;3.90;;
26718;SDS011;14326;50.794;6.060;2023-07-31T01:30:49;16.48;;;4.82;;
26718;SDS011;14326;50.794;6.060;2023-07-31T01:33:16;19.45;;;3.85;;
26718;SDS011;14326;50.794;6.060;2023-07-31T01:35:43;15.77;;;3.63;;
26718;SDS011;14326;50.794;6.060;2023-07-31T01:38:10;17.25;;;4.47;;
26718;SDS011;14326;50.794;6.060;2023-07-31T01:40:37;16.75;;;4.32;;
26718;SDS011;14326;50.794;6.060;2023-07-31T01:43:04;17.60;;;4.50;;
26718;SDS011;14326;50.794;6.060;2023-07-31T01:45:31;20.77;;;4.45;;
26718;SDS011;14326;50.794;6.060;2023-07-31T01:47:57;18.77;;;4.80;;
26718;SDS011;14326;50.794;6.060;2023-07-31T01:50:23;15.13;;;3.47;;
26718;SDS011;14326;50.794;6.060;2023-07-31T01:52:50;17.05;;;4.10;;
26718;SDS011;14326;50.794;6.060;2023-07-31T01:55:16;16.83;;;4.60;;
26718;SDS011;14326;50.794;6.060;2023-07-31T01:57:43;20.67;;;4.20;;
26718;SDS011;14326;50.794;6.060;2023-07-31T02:00:11;16.30;;;4.22;;
26718;SDS011;14326;50.794;6.060;2023-07-31T02:02:37;16.60;;;4.07;;
26718;SDS011;14326;50.794;6.060;2023-07-31T02:05:04;16.15;;;4.07;;
26718;SDS011;14326;50.794;6.060;2023-07-31T02:07:30;22.23;;;4.30;;
26718;SDS011;14326;50.794;6.060;2023-07-31T02:09:57;21.83;;;4.28;;
26718;SDS011;14326;50.794;6.060;2023-07-31T02:12:23;17.38;;;4.40;;
26718;SDS011;14326;50.794;6.060;2023-07-31T02:14:49;20.15;;;4.43;;
26718;SDS011;14326;50.794;6.060;2023-07-31T02:17:17;17.70;;;4.55;;
26718;SDS011;14326;50.794;6.060;2023-07-31T02:19:44;20.20;;;4.22;;
26718;SDS011;14326;50.794;6.060;2023-07-31T02:22:10;16.23;;;4.38;;
26718;SDS011;14326;50.794;6.060;2023-07-31T02:24:36;24.98;;;4.63;;
26718;SDS011;14326;50.794;6.060;2023-07-31T02:27:03;18.45;;;4.40;;
26718;SDS011;14326;50.794;6.060;2023-07-31T02:29:29;16.80;;;4.65;;
26718;SDS011;14326;50.794;6.060;2023-07-31T02:31:56;17.33;;;4.22;;
26718;SDS011;14326;50.794;6.060;2023-07-31T02:34:23;18.20;;;4.75;;
26718;SDS011;14326;50.794;6.060;2023-07-31T02:36:50;16.60;;;4.85;;
26718;SDS011;14326;50.794;6.060;2023-07-31T02:39:16;14.48;;;4.00;;
26718;SDS011;14326;50.794;6.060;2023-07-31T02:41:43;19.83;;;4.40;;
26718;SDS011;14326;50.794;6.060;2023-07-31T02:44:09;17.83;;;4.18;;
26718;SDS011;14326;50.794;6.060;2023-07-31T02:46:38;17.77;;;4.40;;
26718;SDS011;14326;50.794;6.060;2023-07-31T02:49:05;19.45;;;4.53;;
26718;SDS011;14326;50.794;6.060;2023-07-31T02:51:32;19.08;;;4.78;;
26718;SDS011;14326;50.794;6.060;2023-07-31T02:53:59;16.75;;;4.82;;
26718;SDS011;14326;50.794;6.060;2023-07-31T02:56:25;21.30;;;4.85;;
26718;SDS011;14326;50.794;6.060;2023-07-31T02:58:52;17.25;;;4.28;;
26718;SDS011;14326;50.794;6.060;2023-07-31T03:01:18;20.33;;;4.78;;
26718;SDS011;14326;50.794;6.060;2023-07-31T03:03:44;16.58;;;4.68;;
26718;SDS011;14326;50.794;6.060;2023-07-31T03:06:11;13.02;;;3.75;;
26718;SDS011;14326;50.794;6.060;2023-07-31T03:08:38;15.85;;;4.85;;
26718;SDS011;14326;50.794;6.060;2023-07-31T03:11:05;17.98;;;5.18;;
26718;SDS011;14326;50.794;6.060;2023-07-31T03:13:31;16.83;;;4.65;;
26718;SDS011;14326;50.794;6.060;2023-07-31T03:15:58;17.92;;;5.38;;
26718;SDS011;14326;50.794;6.060;2023-07-31T03:18:24;20.00;;;5.78;;
26718;SDS011;14326;50.794;6.060;2023-07-31T03:20:50;15.63;;;4.60;;
26718;SDS011;14326;50.794;6.060;2023-07-31T03:23:17;18.67;;;4.82;;
26718;SDS011;14326;50.794;6.060;2023-07-31T03:25:56;18.27;;;5.10;;
26718;SDS011;14326;50.794;6.060;2023-07-31T03:28:22;17.52;;;4.90;;
26718;SDS011;14326;50.794;6.060;2023-07-31T03:30:49;16.35;;;4.38;;
26718;SDS011;14326;50.794;6.060;2023-07-31T03:33:15;16.60;;;4.72;;
26718;SDS011;14326;50.794;6.060;2023-07-31T03:35:41;16.55;;;4.28;;
26718;SDS011;14326;50.794;6.060;2023-07-31T03:38:08;17.60;;;4.85;;
26718;SDS011;14326;50.794;6.060;2023-07-31T03:40:34;15.90;;;4.88;;
26718;SDS011;14326;50.794;6.060;2023-07-31T03:43:02;12.82;;;4.03;;
26718;SDS011;14326;50.794;6.060;2023-07-31T03:45:28;15.13;;;4.47;;
26718;SDS011;14326;50.794;6.060;2023-07-31T03:47:54;14.52;;;4.60;;
26718;SDS011;14326;50.794;6.060;2023-07-31T03:50:21;17.50;;;4.43;;
26718;SDS011;14326;50.794;6.060;2023-07-31T03:52:47;19.98;;;4.57;;
26718;SDS011;14326;50.794;6.060;2023-07-31T03:55:14;15.88;;;4.47;;
26718;SDS011;14326;50.794;6.060;2023-07-31T03:57:40;14.73;;;4.53;;
26718;SDS011;14326;50.794;6.060;2023-07-31T04:00:08;15.50;;;4.55;;
26718;SDS011;14326;50.794;6.060;2023-07-31T04:02:35;15.57;;;4.22;;
26718;SDS011;14326;50.794;6.060;2023-07-31T04:05:02;17.63;;;4.43;;
26718;SDS011;14326;50.794;6.060;2023-07-31T04:07:28;13.43;;;4.05;;
26718;SDS011;14326;50.794;6.060;2023-07-31T04:09:55;21.95;;;4.30;;
26718;SDS011;14326;50.794;6.060;2023-07-31T04:12:21;15.43;;;4.22;;
26718;SDS011;14326;50.794;6.060;2023-07-31T04:14:48;11.23;;;3.80;;
26718;SDS011;14326;50.794;6.060;2023-07-31T04:17:16;13.43;;;4.35;;
26718;SDS011;14326;50.794;6.060;2023-07-31T04:19:43;14.68;;;3.80;;
26718;SDS011;14326;50.794;6.060;2023-07-31T04:22:09;13.98;;;3.95;;
26718;SDS011;14326;50.794;6.060;2023-07-31T04:24:36;16.45;;;4.13;;
26718;SDS011;14326;50.794;6.060;2023-07-31T04:27:02;14.63;;;3.95;;
26718;SDS011;14326;50.794;6.060;2023-07-31T04:29:29;13.70;;;3.92;;
26718;SDS011;14326;50.794;6.060;2023-07-31T04:31:55;15.73;;;3.92;;
26718;SDS011;14326;50.794;6.060;2023-07-31T04:34:23;14.55;;;3.67;;
26718;SDS011;14326;50.794;6.060;2023-07-31T04:36:49;14.32;;;4.60;;
26718;SDS011;14326;50.794;6.060;2023-07-31T04:39:16;14.02;;;4.03;;
26718;SDS011;14326;50.794;6.060;2023-07-31T04:41:42;15.75;;;4.55;;
26718;SDS011;14326;50.794;6.060;2023-07-31T04:44:08;13.65;;;3.72;;
26718;SDS011;14326;50.794;6.060;2023-07-31T04:46:36;12.82;;;3.50;;
26718;SDS011;14326;50.794;6.060;2023-07-31T04:49:02;15.52;;;4.68;;
26718;SDS011;14326;50.794;6.060;2023-07-31T04:51:30;15.07;;;4.05;;
26718;SDS011;14326;50.794;6.060;2023-07-31T04:53:56;16.80;;;4.50;;
26718;SDS011;14326;50.794;6.060;2023-07-31T04:56:23;14.18;;;3.65;;
26718;SDS011;14326;50.794;6.060;2023-07-31T04:58:49;12.80;;;3.75;;
26718;SDS011;14326;50.794;6.060;2023-07-31T05:01:15;11.93;;;3.35;;
26718;SDS011;14326;50.794;6.060;2023-07-31T05:03:42;14.85;;;3.80;;
26718;SDS011;14326;50.794;6.060;2023-07-31T05:06:08;14.32;;;3.92;;
26718;SDS011;14326;50.794;6.060;2023-07-31T05:08:36;15.68;;;3.80;;
26718;SDS011;14326;50.794;6.060;2023-07-31T05:11:02;12.77;;;3.65;;
26718;SDS011;14326;50.794;6.060;2023-07-31T05:13:29;14.75;;;4.10;;
26718;SDS011;14326;50.794;6.060;2023-07-31T05:15:55;15.07;;;3.75;;
26718;SDS011;14326;50.794;6.060;2023-07-31T05:18:22;16.95;;;4.32;;
26718;SDS011;14326;50.794;6.060;2023-07-31T05:20:48;15.93;;;3.65;;
26718;SDS011;14326;50.794;6.060;2023-07-31T05:23:14;12.93;;;3.33;;
26718;SDS011;14326;50.794;6.060;2023-07-31T05:25:42;16.15;;;4.07;;
26718;SDS011;14326;50.794;6.060;2023-07-31T05:28:08;14.30;;;3.80;;
26718;SDS011;14326;50.794;6.060;2023-07-31T05:30:35;19.75;;;4.28;;
26718;SDS011;14326;50.794;6.060;2023-07-31T05:33:01;16.20;;;3.97;;
26718;SDS011;14326;50.794;6.060;2023-07-31T05:35:28;13.82;;;3.80;;
26718;SDS011;14326;50.794;6.060;2023-07-31T05:37:54;10.70;;;3.50;;
26718;SDS011;14326;50.794;6.060;2023-07-31T05:40:20;14.90;;;3.50;;
26718;SDS011;14326;50.794;6.060;2023-07-31T05:42:48;15.48;;;4.30;;
26718;SDS011;14326;50.794;6.060;2023-07-31T05:45:14;17.73;;;3.53;;
26718;SDS011;14326;50.794;6.060;2023-07-31T05:47:41;15.85;;;4.38;;
26718;SDS011;14326;50.794;6.060;2023-07-31T05:50:07;15.85;;;4.00;;
26718;SDS011;14326;50.794;6.060;2023-07-31T05:52:34;12.43;;;4.07;;
26718;SDS011;14326;50.794;6.060;2023-07-31T05:55:00;15.95;;;3.85;;
26718;SDS011;14326;50.794;6.060;2023-07-31T05:57:28;17.60;;;4.18;;
26718;SDS011;14326;50.794;6.060;2023-07-31T05:59:55;15.23;;;4.50;;
26718;SDS011;14326;50.794;6.060;2023-07-31T06:02:22;15.95;;;3.90;;
26718;SDS011;14326;50.794;6.060;2023-07-31T06:04:48;15.07;;;4.03;;
26718;SDS011;14326;50.794;6.060;2023-07-31T06:07:15;15.82;;;3.88;;
26718;SDS011;14326;50.794;6.060;2023-07-31T06:09:41;14.15;;;4.18;;
26718;SDS011;14326;50.794;6.060;2023-07-31T06:12:08;18.77;;;3.67;;
26718;SDS011;14326;50.794;6.060;2023-07-31T06:14:34;14.43;;;3.75;;
26718;SDS011;14326;50.794;6.060;2023-07-31T06:17:02;16.50;;;4.20;;
26718;SDS011;14326;50.794;6.060;2023-07-31T06:19:29;16.40;;;3.95;;
26718;SDS011;14326;50.794;6.060;2023-07-31T06:21:55;17.80;;;3.97;;
26718;SDS011;14326;50.794;6.060;2023-07-31T06:24:22;14.63;;;3.70;;
26718;SDS011;14326;50.794;6.060;2023-07-31T06:26:48;15.00;;;3.63;;
26718;SDS011;14326;50.794;6.060;2023-07-31T06:29:15;16.02;;;4.22;;
26718;SDS011;14326;50.794;6.060;2023-07-31T06:31:42;14.20;;;3.45;;
26718;SDS011;14326;50.794;6.060;2023-07-31T06:34:10;17.83;;;3.90;;
26718;SDS011;14326;50.794;6.060;2023-07-31T06:36:36;14.23;;;3.75;;
26718;SDS011;14326;50.794;6.060;2023-07-31T06:39:02;13.60;;;3.80;;
26718;SDS011;14326;50.794;6.060;2023-07-31T06:41:29;15.82;;;4.22;;
26718;SDS011;14326;50.794;6.060;2023-07-31T06:43:56;11.45;;;3.63;;
26718;SDS011;14326;50.794;6.060;2023-07-31T06:46:22;14.63;;;4.00;;
26718;SDS011;14326;50.794;6.060;2023-07-31T06:48:48;14.13;;;3.80;;
26718;SDS011;14326;50.794;6.060;2023-07-31T06:51:16;14.15;;;3.97;;
26718;SDS011;14326;50.794;6.060;2023-07-31T06:53:43;15.43;;;3.95;;
26718;SDS011;14326;50.794;6.060;2023-07-31T06:56:10;23.33;;;3.92;;
26718;SDS011;14326;50.794;6.060;2023-07-31T06:58:37;17.33;;;3.80;;
26718;SDS011;14326;50.794;6.060;2023-07-31T07:01:04;17.50;;;3.85;;
26718;SDS011;14326;50.794;6.060;2023-07-31T07:03:30;12.65;;;3.35;;
26718;SDS011;14326;50.794;6.060;2023-07-31T07:05:57;18.10;;;3.97;;
26718;SDS011;14326;50.794;6.060;2023-07-31T07:08:25;15.93;;;4.07;;
26718;SDS011;14326;50.794;6.060;2023-07-31T07:10:52;14.68;;;3.90;;
26718;SDS011;14326;50.794;6.060;2023-07-31T07:13:19;14.10;;;3.40;;
26718;SDS011;14326;50.794;6.060;2023-07-31T07:15:47;15.13;;;3.95;;
26718;SDS011;14326;50.794;6.060;2023-07-31T07:18:14;13.82;;;4.03;;
26718;SDS011;14326;50.794;6.060;2023-07-31T07:20:40;15.23;;;3.78;;
26718;SDS011;14326;50.794;6.060;2023-07-31T07:23:07;15.80;;;3.67;;
26718;SDS011;14326;50.794;6.060;2023-07-31T07:25:35;14.43;;;4.15;;
26718;SDS011;14326;50.794;6.060;2023-07-31T07:28:03;18.02;;;4.30;;
26718;SDS011;14326;50.794;6.060;2023-07-31T07:30:29;13.38;;;3.38;;
26718;SDS011;14326;50.794;6.060;2023-07-31T07:32:56;15.90;;;4.55;;
26718;SDS011;14326;50.794;6.060;2023-07-31T07:35:22;13.20;;;3.72;;
26718;SDS011;14326;50.794;6.060;2023-07-31T07:37:49;13.65;;;3.88;;
26718;SDS011;14326;50.794;6.060;2023-07-31T07:40:16;15.88;;;3.63;;
26718;SDS011;14326;50.794;6.060;2023-07-31T07:42:44;13.50;;;3.75;;
26718;SDS011;14326;50.794;6.060;2023-07-31T07:45:10;14.18;;;4.43;;
26718;SDS011;14326;50.794;6.060;2023-07-31T07:47:37;14.57;;;3.53;;
26718;SDS011;14326;50.794;6.060;2023-07-31T07:50:04;19.35;;;4.25;;
26718;SDS011;14326;50.794;6.060;2023-07-31T07:52:31;14.05;;;4.00;;
26718;SDS011;14326;50.794;6.060;2023-07-31T07:54:57;12.43;;;3.58;;
26718;SDS011;14326;50.794;6.060;2023-07-31T07:57:23;18.02;;;3.33;;
26718;SDS011;14326;50.794;6.060;2023-07-31T07:59:51;13.95;;;3.63;;
26718;SDS011;14326;50.794;6.060;2023-07-31T08:02:18;13.40;;;3.83;;
26718;SDS011;14326;50.794;6.060;2023-07-31T08:04:44;13.02;;;3.40;;
26718;SDS011;14326;50.794;6.060;2023-07-31T08:07:11;12.27;;;3.80;;
26718;SDS011;14326;50.794;6.060;2023-07-31T08:09:38;15.45;;;4.00;;
26718;SDS011;14326;50.794;6.060;2023-07-31T08:12:05;17.10;;;4.05;;
26718;SDS011;14326;50.794;6.060;2023-07-31T08:14:31;12.85;;;3.97;;
26718;SDS011;14326;50.794;6.060;2023-07-31T08:17:01;12.38;;;3.55;;
26718;SDS011;14326;50.794;6.060;2023-07-31T08:19:28;12.05;;;3.67;;
26718;SDS011;14326;50.794;6.060;2023-07-31T08:21:54;15.60;;;3.75;;
26718;SDS011;14326;50.794;6.060;2023-07-31T08:24:21;11.60;;;3.30;;
26718;SDS011;14326;50.794;6.060;2023-07-31T08:26:47;13.18;;;3.78;;
26718;SDS011;14326;50.794;6.060;2023-07-31T08:29:14;12.80;;;3.20;;
26718;SDS011;14326;50.794;6.060;2023-07-31T08:31:40;15.38;;;3.40;;
26718;SDS011;14326;50.794;6.060;2023-07-31T08:34:08;14.32;;;3.63;;
26718;SDS011;14326;50.794;6.060;2023-07-31T08:36:35;15.23;;;4.07;;
26718;SDS011;14326;50.794;6.060;2023-07-31T08:39:01;12.70;;;3.42;;
26718;SDS011;14326;50.794;6.060;2023-07-31T08:41:29;16.58;;;3.60;;
26718;SDS011;14326;50.794;6.060;2023-07-31T08:43:55;16.67;;;4.40;;
26718;SDS011;14326;50.794;6.060;2023-07-31T08:46:23;15.32;;;4.00;;
26718;SDS011;14326;50.794;6.060;2023-07-31T08:48:50;13.95;;;3.40;;
26718;SDS011;14326;50.794;6.060;2023-07-31T08:51:20;12.85;;;3.53;;
26718;SDS011;14326;50.794;6.060;2023-07-31T08:53:47;15.93;;;3.53;;
26718;SDS011;14326;50.794;6.060;2023-07-31T08:56:14;13.30;;;3.83;;
26718;SDS011;14326;50.794;6.060;2023-07-31T08:58:42;14.63;;;3.83;;
26718;SDS011;14326;50.794;6.060;2023-07-31T09:01:09;13.93;;;4.00;;
26718;SDS011;14326;50.794;6.060;2023-07-31T09:04:14;12.80;;;3.60;;
26718;SDS011;14326;50.794;6.060;2023-07-31T09:06:42;13.32;;;3.70;;
26718;SDS011;14326;50.794;6.060;2023-07-31T09:09:10;15.32;;;3.85;;
26718;SDS011;14326;50.794;6.060;2023-07-31T09:11:37;15.45;;;3.83;;
26718;SDS011;14326;50.794;6.060;2023-07-31T09:14:03;14.45;;;3.17;;
26718;SDS011;14326;50.794;6.060;2023-07-31T09:19:00;13.52;;;3.70;;
26718;SDS011;14326;50.794;6.060;2023-07-31T09:21:28;12.50;;;3.00;;
26718;SDS011;14326;50.794;6.060;2023-07-31T09:23:55;15.68;;;4.18;;
26718;SDS011;14326;50.794;6.060;2023-07-31T09:26:28;13.98;;;4.15;;
26718;SDS011;14326;50.794;6.060;2023-07-31T09:28:55;12.27;;;3.45;;
26718;SDS011;14326;50.794;6.060;2023-07-31T09:31:31;16.05;;;4.88;;
26718;SDS011;14326;50.794;6.060;2023-07-31T09:33:57;14.25;;;3.47;;
26718;SDS011;14326;50.794;6.060;2023-07-31T09:36:25;14.05;;;3.60;;
26718;SDS011;14326;50.794;6.060;2023-07-31T09:38:56;15.23;;;3.38;;
26718;SDS011;14326;50.794;6.060;2023-07-31T09:41:24;9.30;;;3.22;;
26718;SDS011;14326;50.794;6.060;2023-07-31T09:43:53;12.90;;;3.03;;
26718;SDS011;14326;50.794;6.060;2023-07-31T09:46:20;15.27;;;3.65;;
26718;SDS011;14326;50.794;6.060;2023-07-31T09:48:47;13.55;;;3.70;;
26718;SDS011;14326;50.794;6.060;2023-07-31T09:51:14;14.00;;;3.35;;
26718;SDS011;14326;50.794;6.060;2023-07-31T09:53:40;12.52;;;3.15;;
26718;SDS011;14326;50.794;6.060;2023-07-31T09:56:08;11.40;;;3.55;;
26718;SDS011;14326;50.794;6.060;2023-07-31T09:58:34;12.95;;;3.55;;
26718;SDS011;14326;50.794;6.060;2023-07-31T10:01:02;12.05;;;3.20;;
26718;SDS011;14326;50.794;6.060;2023-07-31T10:03:28;12.52;;;3.33;;
26718;SDS011;14326;50.794;6.060;2023-07-31T10:05:56;12.35;;;2.95;;
26718;SDS011;14326;50.794;6.060;2023-07-31T10:08:23;12.30;;;3.08;;
26718;SDS011;14326;50.794;6.060;2023-07-31T10:10:54;13.48;;;3.25;;
26718;SDS011;14326;50.794;6.060;2023-07-31T10:13:24;10.70;;;3.15;;
26718;SDS011;14326;50.794;6.060;2023-07-31T10:15:51;10.65;;;3.00;;
26718;SDS011;14326;50.794;6.060;2023-07-31T10:18:18;15.65;;;2.85;;
26718;SDS011;14326;50.794;6.060;2023-07-31T10:20:45;12.20;;;3.00;;
26718;SDS011;14326;50.794;6.060;2023-07-31T10:23:11;10.13;;;2.72;;
26718;SDS011;14326;50.794;6.060;2023-07-31T10:25:38;12.73;;;2.97;;
26718;SDS011;14326;50.794;6.060;2023-07-31T10:28:05;12.05;;;2.92;;
26718;SDS011;14326;50.794;6.060;2023-07-31T10:30:33;9.77;;;2.97;;
26718;SDS011;14326;50.794;6.060;2023-07-31T10:33:03;12.20;;;2.88;;
26718;SDS011;14326;50.794;6.060;2023-07-31T10:35:30;8.43;;;2.80;;
26718;SDS011;14326;50.794;6.060;2023-07-31T10:37:57;7.95;;;2.22;;
26718;SDS011;14326;50.794;6.060;2023-07-31T10:40:35;9.95;;;2.33;;
26718;SDS011;14326;50.794;6.060;2023-07-31T10:43:02;6.82;;;2.15;;
26718;SDS011;14326;50.794;6.060;2023-07-31T10:45:31;8.73;;;2.00;;
26718;SDS011;14326;50.794;6.060;2023-07-31T10:48:00;7.15;;;2.10;;
26718;SDS011;14326;50.794;6.060;2023-07-31T10:50:27;7.38;;;2.28;;
26718;SDS011;14326;50.794;6.060;2023-07-31T10:52:54;8.43;;;2.40;;
26718;SDS011;14326;50.794;6.060;2023-07-31T10:55:28;9.18;;;2.30;;
26718;SDS011;14326;50.794;6.060;2023-07-31T10:57:55;7.55;;;2.20;;
26718;SDS011;14326;50.794;6.060;2023-07-31T11:00:23;5.70;;;2.15;;
26718;SDS011;14326;50.794;6.060;2023-07-31T11:02:58;8.60;;;2.45;;
26718;SDS011;14326;50.794;6.060;2023-07-31T11:05:41;7.55;;;2.47;;
26718;SDS011;14326;50.794;6.060;2023-07-31T11:08:14;6.38;;;2.03;;
26718;SDS011;14326;50.794;6.060;2023-07-31T11:10:41;7.00;;;2.25;;
26718;SDS011;14326;50.794;6.060;2023-07-31T11:13:08;6.45;;;2.28;;
26718;SDS011;14326;50.794;6.060;2023-07-31T11:15:34;9.32;;;2.33;;
26718;SDS011;14326;50.794;6.060;2023-07-31T11:18:02;10.85;;;2.83;;
26718;SDS011;14326;50.794;6.060;2023-07-31T11:20:30;8.68;;;2.92;;
26718;SDS011;14326;50.794;6.060;2023-07-31T11:22:58;9.80;;;3.20;;
26718;SDS011;14326;50.794;6.060;2023-07-31T11:25:24;11.20;;;3.00;;
26718;SDS011;14326;50.794;6.060;2023-07-31T11:27:51;10.75;;;3.17;;
26718;SDS011;14326;50.794;6.060;2023-07-31T11:30:18;11.27;;;3.28;;
26718;SDS011;14326;50.794;6.060;2023-07-31T11:32:45;10.25;;;3.00;;
26718;SDS011;14326;50.794;6.060;2023-07-31T11:35:13;9.85;;;3.05;;
26718;SDS011;14326;50.794;6.060;2023-07-31T11:37:40;12.82;;;3.75;;
26718;SDS011;14326;50.794;6.060;2023-07-31T11:40:07;11.20;;;3.33;;
26718;SDS011;14326;50.794;6.060;2023-07-31T11:42:34;10.30;;;3.20;;
26718;SDS011;14326;50.794;6.060;2023-07-31T11:45:02;7.65;;;2.70;;
26718;SDS011;14326;50.794;6.060;2023-07-31T11:47:28;12.18;;;3.13;;
26718;SDS011;14326;50.794;6.060;2023-07-31T11:49:56;12.55;;;3.38;;
26718;SDS011;14326;50.794;6.060;2023-07-31T11:52:23;13.88;;;3.20;;
26718;SDS011;14326;50.794;6.060;2023-07-31T11:54:50;9.50;;;3.13;;
26718;SDS011;14326;50.794;6.060;2023-07-31T11:57:17;11.02;;;3.30;;
26718;SDS011;14326;50.794;6.060;2023-07-31T11:59:44;13.40;;;3.50;;
26718;SDS011;14326;50.794;6.060;2023-07-31T12:02:10;11.38;;;3.20;;
26718;SDS011;14326;50.794;6.060;2023-07-31T12:04:37;13.73;;;3.45;;
26718;SDS011;14326;50.794;6.060;2023-07-31T12:07:04;8.90;;;3.10;;
26718;SDS011;14326;50.794;6.060;2023-07-31T12:09:32;13.32;;;3.40;;
26718;SDS011;14326;50.794;6.060;2023-07-31T12:11:58;9.98;;;3.53;;
26718;SDS011;14326;50.794;6.060;2023-07-31T12:14:25;12.45;;;3.97;;
26718;SDS011;14326;50.794;6.060;2023-07-31T12:16:53;11.10;;;3.35;;
26718;SDS011;14326;50.794;6.060;2023-07-31T12:19:20;11.70;;;3.45;;
26718;SDS011;14326;50.794;6.060;2023-07-31T12:21:46;12.75;;;3.95;;
26718;SDS011;14326;50.794;6.060;2023-07-31T12:24:12;12.63;;;3.30;;
26718;SDS011;14326;50.794;6.060;2023-07-31T12:26:42;12.80;;;3.72;;
26718;SDS011;14326;50.794;6.060;2023-07-31T12:29:11;14.27;;;3.67;;
26718;SDS011;14326;50.794;6.060;2023-07-31T12:31:37;11.00;;;3.50;;
26718;SDS011;14326;50.794;6.060;2023-07-31T12:34:16;13.57;;;3.78;;
26718;SDS011;14326;50.794;6.060;2023-07-31T12:36:43;12.80;;;3.80;;
26718;SDS011;14326;50.794;6.060;2023-07-31T12:39:10;11.43;;;3.40;;
26718;SDS011;14326;50.794;6.060;2023-07-31T12:41:36;11.52;;;3.53;;
26718;SDS011;14326;50.794;6.060;2023-07-31T12:44:04;10.85;;;3.00;;
26718;SDS011;14326;50.794;6.060;2023-07-31T12:46:31;14.70;;;3.42;;
26718;SDS011;14326;50.794;6.060;2023-07-31T12:48:57;15.88;;;4.55;;
26718;SDS011;14326;50.794;6.060;2023-07-31T12:51:23;12.95;;;3.65;;
26718;SDS011;14326;50.794;6.060;2023-07-31T12:53:50;11.98;;;3.47;;
26718;SDS011;14326;50.794;6.060;2023-07-31T12:56:16;11.73;;;3.72;;
26718;SDS011;14326;50.794;6.060;2023-07-31T12:58:43;11.90;;;3.15;;
26718;SDS011;14326;50.794;6.060;2023-07-31T13:01:11;12.57;;;3.40;;
26718;SDS011;14326;50.794;6.060;2023-07-31T13:03:37;9.20;;;2.70;;
26718;SDS011;14326;50.794;6.060;2023-07-31T13:06:04;12.95;;;3.05;;
26718;SDS011;14326;50.794;6.060;2023-07-31T13:08:30;10.10;;;2.58;;
26718;SDS011;14326;50.794;6.060;2023-07-31T13:10:57;11.05;;;3.00;;
26718;SDS011;14326;50.794;6.060;2023-07-31T13:13:23;14.55;;;3.15;;
26718;SDS011;14326;50.794;6.060;2023-07-31T13:15:49;8.77;;;2.88;;
26718;SDS011;14326;50.794;6.060;2023-07-31T13:18:17;9.90;;;2.70;;
26718;SDS011;14326;50.794;6.060;2023-07-31T13:20:44;10.85;;;3.00;;
26718;SDS011;14326;50.794;6.060;2023-07-31T13:23:10;12.50;;;3.67;;
26718;SDS011;14326;50.794;6.060;2023-07-31T13:25:36;11.18;;;3.10;;
26718;SDS011;14326;50.794;6.060;2023-07-31T13:28:03;11.40;;;3.45;;
26718;SDS011;14326;50.794;6.060;2023-07-31T13:30:29;12.13;;;3.67;;
26718;SDS011;14326;50.794;6.060;2023-07-31T13:32:56;13.13;;;3.45;;
26718;SDS011;14326;50.794;6.060;2023-07-31T13:35:23;11.55;;;3.15;;
26718;SDS011;14326;50.794;6.060;2023-07-31T13:37:50;11.05;;;3.63;;
26718;SDS011;14326;50.794;6.060;2023-07-31T13:40:16;11.48;;;3.15;;
26718;SDS011;14326;50.794;6.060;2023-07-31T13:42:43;13.13;;;3.60;;
26718;SDS011;14326;50.794;6.060;2023-07-31T13:45:09;10.60;;;3.42;;
26718;SDS011;14326;50.794;6.060;2023-07-31T13:47:36;14.40;;;3.60;;
26718;SDS011;14326;50.794;6.060;2023-07-31T13:50:03;12.02;;;3.35;;
26718;SDS011;14326;50.794;6.060;2023-07-31T13:52:31;11.98;;;3.80;;
26718;SDS011;14326;50.794;6.060;2023-07-31T13:54:57;14.95;;;3.95;;
26718;SDS011;14326;50.794;6.060;2023-07-31T13:57:24;14.27;;;3.92;;
26718;SDS011;14326;50.794;6.060;2023-07-31T13:59:53;11.63;;;3.80;;
26718;SDS011;14326;50.794;6.060;2023-07-31T14:02:19;12.48;;;3.65;;
26718;SDS011;14326;50.794;6.060;2023-07-31T14:04:46;14.82;;;4.18;;
26718;SDS011;14326;50.794;6.060;2023-07-31T14:07:12;13.30;;;3.85;;
26718;SDS011;14326;50.794;6.060;2023-07-31T14:09:40;12.27;;;3.88;;
26718;SDS011;14326;50.794;6.060;2023-07-31T14:12:07;13.70;;;3.33;;
26718;SDS011;14326;50.794;6.060;2023-07-31T14:14:33;12.50;;;3.55;;
26718;SDS011;14326;50.794;6.060;2023-07-31T14:17:00;10.95;;;3.60;;
26718;SDS011;14326;50.794;6.060;2023-07-31T14:19:26;13.35;;;4.00;;
26718;SDS011;14326;50.794;6.060;2023-07-31T14:21:53;11.50;;;3.83;;
26718;SDS011;14326;50.794;6.060;2023-07-31T14:24:19;14.82;;;4.47;;
26718;SDS011;14326;50.794;6.060;2023-07-31T14:26:47;13.57;;;4.25;;
26718;SDS011;14326;50.794;6.060;2023-07-31T14:29:14;16.13;;;4.45;;
26718;SDS011;14326;50.794;6.060;2023-07-31T14:31:40;11.75;;;3.83;;
26718;SDS011;14326;50.794;6.060;2023-07-31T14:34:07;12.82;;;3.80;;
26718;SDS011;14326;50.794;6.060;2023-07-31T14:36:33;13.15;;;4.22;;
26718;SDS011;14326;50.794;6.060;2023-07-31T14:38:59;11.95;;;3.70;;
26718;SDS011;14326;50.794;6.060;2023-07-31T14:41:26;12.85;;;3.95;;
26718;SDS011;14326;50.794;6.060;2023-07-31T14:43:54;12.73;;;4.15;;